Time;durP1;ratioP1;P1;durP2;ratioP2;P2;SDS_P1;SDS_P2;PMS_P1;PMS_P2;Temp;Humidity;BMP_temperature;BMP_pressure;BME280_temperature;BME280_humidity;BME280_pressure;Samples;Min_cycle;Max_cycle;Signal;HPM_P1;HPM_P2
2023/07/24 00:01:58;;;;;;;2.85;1.13;;;11.80;99.90;;;;;;4959269;28;20444;-89
2023/07/24 00:04:24;;;;;;;1.30;1.10;;;11.80;99.90;;;;;;4977464;28;20037;-89
2023/07/24 00:06:49;;;;;;;1.52;1.33;;;11.80;99.90;;;;;;4960119;28;20026;-89
2023/07/24 00:09:15;;;;;;;2.70;1.42;;;11.80;99.90;;;;;;4958558;28;20118;-90
2023/07/24 00:11:41;;;;;;;1.98;1.27;;;11.80;99.90;;;;;;4975854;28;20518;-90
2023/07/24 00:14:06;;;;;;;1.23;0.95;;;11.70;99.90;;;;;;4958316;28;20019;-90
2023/07/24 00:16:32;;;;;;;1.77;1.10;;;11.70;99.90;;;;;;4958590;28;20022;-90
2023/07/24 00:18:57;;;;;;;2.67;1.42;;;11.70;99.90;;;;;;4975500;28;20035;-91
2023/07/24 00:21:23;;;;;;;3.65;1.48;;;11.70;99.90;;;;;;4957953;28;20015;-90
2023/07/24 00:23:49;;;;;;;3.70;1.40;;;11.70;99.90;;;;;;4975442;28;20035;-90
2023/07/24 00:26:14;;;;;;;1.50;1.10;;;11.70;99.90;;;;;;4974575;28;20042;-90
2023/07/24 00:28:40;;;;;;;3.67;1.73;;;11.70;99.90;;;;;;4975203;28;20038;-90
2023/07/24 00:31:05;;;;;;;2.65;1.40;;;11.60;99.90;;;;;;4958047;28;20026;-90
2023/07/24 00:33:31;;;;;;;2.47;1.77;;;11.60;99.90;;;;;;4957815;28;20027;-89
2023/07/24 00:35:57;;;;;;;2.80;1.50;;;11.60;99.90;;;;;;4975072;28;20400;-89
2023/07/24 00:38:23;;;;;;;3.03;1.42;;;11.60;99.90;;;;;;4974845;28;20053;-88
2023/07/24 00:40:49;;;;;;;3.15;1.70;;;11.60;99.90;;;;;;4974906;28;20026;-91
2023/07/24 00:43:15;;;;;;;2.58;1.83;;;11.60;99.90;;;;;;4957685;28;20031;-90
2023/07/24 00:45:41;;;;;;;2.35;1.75;;;11.60;99.90;;;;;;4975017;28;20085;-90
2023/07/24 00:48:07;;;;;;;3.85;1.90;;;11.60;99.90;;;;;;4974640;28;20027;-91
2023/07/24 00:50:33;;;;;;;3.25;1.65;;;11.60;99.90;;;;;;4974792;28;20031;-89
2023/07/24 00:52:59;;;;;;;3.55;1.83;;;11.60;99.90;;;;;;4972722;28;20118;-91
2023/07/24 00:55:25;;;;;;;4.85;1.98;;;11.70;99.90;;;;;;4978163;28;20019;-90
2023/07/24 00:57:51;;;;;;;4.30;1.95;;;11.60;99.90;;;;;;4976939;28;20034;-89
2023/07/24 01:00:17;;;;;;;3.42;1.70;;;11.60;99.90;;;;;;4979558;28;20169;-90
2023/07/24 01:02:43;;;;;;;3.20;1.60;;;11.60;99.90;;;;;;4961563;28;20111;-90
2023/07/24 01:05:10;;;;;;;4.82;1.80;;;11.60;99.90;;;;;;4960820;28;20047;-89
2023/07/24 01:07:37;;;;;;;2.42;1.90;;;11.60;99.90;;;;;;4960260;28;20019;-92
2023/07/24 01:10:02;;;;;;;3.03;1.60;;;11.60;99.90;;;;;;4958220;28;20027;-92
2023/07/24 01:12:35;;;;;;;3.20;1.67;;;11.60;99.90;;;;;;4975897;28;20023;-89
2023/07/24 01:15:12;;;;;;;7.88;2.30;;;11.50;99.90;;;;;;4972637;28;20027;-93
2023/07/24 01:17:45;;;;;;;3.80;2.28;;;11.50;99.90;;;;;;4957372;28;20039;-92
2023/07/24 01:20:14;;;;;;;2.22;1.60;;;11.50;99.90;;;;;;4957314;28;20046;-90
2023/07/24 01:23:02;;;;;;;2.42;1.67;;;11.50;99.90;;;;;;4972099;28;20026;-90
2023/07/24 01:25:35;;;;;;;4.40;1.83;;;11.50;99.90;;;;;;4957082;28;20089;-91
2023/07/24 01:28:01;;;;;;;5.25;2.00;;;11.50;99.90;;;;;;4954741;28;20043;-91
2023/07/24 01:30:26;;;;;;;4.55;1.88;;;11.50;99.90;;;;;;4974852;28;20033;-90
2023/07/24 01:32:52;;;;;;;3.63;1.70;;;11.50;99.90;;;;;;4975691;28;20023;-90
2023/07/24 01:35:18;;;;;;;3.30;2.10;;;11.50;99.90;;;;;;4957214;28;20022;-89
2023/07/24 01:37:45;;;;;;;3.08;2.10;;;11.50;99.90;;;;;;4957544;28;20027;-89
2023/07/24 01:40:12;;;;;;;2.83;1.63;;;11.50;99.90;;;;;;4973953;28;20110;-91
2023/07/24 01:42:38;;;;;;;3.03;1.65;;;11.50;99.90;;;;;;4976071;28;20369;-91
2023/07/24 01:45:04;;;;;;;2.08;1.73;;;11.50;99.90;;;;;;4976338;28;20497;-90
2023/07/24 01:47:30;;;;;;;2.00;1.75;;;11.40;99.90;;;;;;4974997;28;20552;-88
2023/07/24 01:49:56;;;;;;;4.13;2.03;;;11.40;99.90;;;;;;4957989;28;20121;-90
2023/07/24 01:52:22;;;;;;;3.28;1.80;;;11.50;99.90;;;;;;4974241;28;20023;-90
2023/07/24 01:54:48;;;;;;;7.43;1.80;;;11.50;99.90;;;;;;4974546;28;20502;-91
2023/07/24 01:57:13;;;;;;;1.92;1.50;;;11.50;99.90;;;;;;4974332;28;20023;-91
2023/07/24 01:59:39;;;;;;;1.92;1.70;;;11.50;99.90;;;;;;4971577;28;20496;-92
2023/07/24 02:02:05;;;;;;;3.20;1.95;;;11.50;99.90;;;;;;4957184;28;20110;-91
2023/07/24 02:04:30;;;;;;;4.18;1.80;;;11.50;99.90;;;;;;4974032;28;20062;-91
2023/07/24 02:06:56;;;;;;;4.13;1.65;;;11.50;99.90;;;;;;4957182;28;20030;-92
2023/07/24 02:09:22;;;;;;;4.78;1.50;;;11.50;99.90;;;;;;4974000;28;20453;-91
2023/07/24 02:11:47;;;;;;;4.60;1.50;;;11.50;99.90;;;;;;4973788;28;20026;-91
2023/07/24 02:14:14;;;;;;;2.95;1.48;;;11.50;99.90;;;;;;4973940;28;20026;-90
2023/07/24 02:16:40;;;;;;;2.28;1.38;;;11.50;99.90;;;;;;4973782;28;20046;-91
2023/07/24 02:19:05;;;;;;;1.33;1.15;;;11.50;99.90;;;;;;4973833;28;20500;-92
2023/07/24 02:21:32;;;;;;;3.55;1.83;;;11.50;99.90;;;;;;4956891;28;20019;-90
2023/07/24 02:23:58;;;;;;;3.13;1.77;;;11.50;99.90;;;;;;4977423;28;20030;-90
2023/07/24 02:26:23;;;;;;;3.15;1.90;;;11.50;99.90;;;;;;4960187;28;20461;-91
2023/07/24 02:28:49;;;;;;;3.60;1.90;;;11.50;99.90;;;;;;4960499;28;20031;-90
2023/07/24 02:31:15;;;;;;;6.28;1.83;;;11.60;99.90;;;;;;4960601;28;20019;-91
2023/07/24 02:33:41;;;;;;;3.30;1.80;;;11.60;99.90;;;;;;4980114;28;20046;-90
2023/07/24 02:36:07;;;;;;;5.50;1.67;;;11.60;99.90;;;;;;4981363;28;20019;-89
2023/07/24 02:38:33;;;;;;;3.50;1.35;;;11.60;99.90;;;;;;4979536;28;20031;-90
2023/07/24 02:40:59;;;;;;;2.30;1.50;;;11.60;99.90;;;;;;4960898;28;20081;-89
2023/07/24 02:43:25;;;;;;;2.55;1.73;;;11.50;99.90;;;;;;4977408;28;20046;-91
2023/07/24 02:45:50;;;;;;;3.15;1.48;;;11.50;99.90;;;;;;4977219;28;20023;-89
2023/07/24 02:48:16;;;;;;;6.05;1.55;;;11.50;99.90;;;;;;4977044;28;20495;-91
2023/07/24 02:50:42;;;;;;;3.58;1.60;;;11.50;99.90;;;;;;4977070;28;20023;-90
2023/07/24 02:53:07;;;;;;;4.28;1.80;;;11.60;99.90;;;;;;4960196;28;20476;-89
2023/07/24 02:55:33;;;;;;;4.53;1.95;;;11.60;99.90;;;;;;4977207;28;20026;-90
2023/07/24 02:57:59;;;;;;;4.15;1.88;;;11.50;99.90;;;;;;4977003;28;20074;-90
2023/07/24 03:00:24;;;;;;;5.80;2.00;;;11.50;99.90;;;;;;4978862;28;20524;-90
2023/07/24 03:02:51;;;;;;;5.20;1.95;;;11.50;99.90;;;;;;4976653;28;20038;-88
2023/07/24 03:05:16;;;;;;;6.15;2.58;;;11.50;99.90;;;;;;4976684;28;20121;-89
2023/07/24 03:07:42;;;;;;;3.25;1.80;;;11.60;99.90;;;;;;4959573;28;20101;-89
2023/07/24 03:10:08;;;;;;;4.68;1.98;;;11.60;99.90;;;;;;4976660;28;20537;-91
2023/07/24 03:12:34;;;;;;;5.75;2.10;;;11.60;99.90;;;;;;4976475;28;20559;-89
2023/07/24 03:14:59;;;;;;;9.20;1.90;;;11.60;99.90;;;;;;4959700;28;20027;-90
2023/07/24 03:17:25;;;;;;;2.28;1.50;;;11.60;99.90;;;;;;4975892;28;20023;-89
2023/07/24 03:19:50;;;;;;;2.67;1.67;;;11.60;99.90;;;;;;4976203;28;20027;-90
2023/07/24 03:22:16;;;;;;;2.97;1.58;;;11.70;99.90;;;;;;4959011;28;20429;-88
2023/07/24 03:24:42;;;;;;;4.53;2.08;;;11.70;99.90;;;;;;4959040;28;20038;-90
2023/07/24 03:27:07;;;;;;;2.45;1.48;;;11.70;99.90;;;;;;4961209;28;20069;-91
2023/07/24 03:29:33;;;;;;;6.30;1.90;;;11.70;99.90;;;;;;4980356;28;20105;-89
2023/07/24 03:31:59;;;;;;;2.33;1.88;;;11.70;99.90;;;;;;4980367;28;20543;-90
2023/07/24 03:34:24;;;;;;;5.00;2.20;;;11.70;99.90;;;;;;4976659;28;20026;-90
2023/07/24 03:36:50;;;;;;;4.82;1.92;;;11.70;99.90;;;;;;4975893;28;20025;-90
2023/07/24 03:39:16;;;;;;;5.22;2.13;;;11.70;99.90;;;;;;4958629;28;20030;-90
2023/07/24 03:41:42;;;;;;;4.57;1.83;;;11.70;99.90;;;;;;4975777;28;20015;-89
2023/07/24 03:44:08;;;;;;;3.97;1.80;;;11.70;99.90;;;;;;4975590;28;20027;-89
2023/07/24 03:46:34;;;;;;;3.78;2.05;;;11.70;99.90;;;;;;4975441;28;20093;-89
2023/07/24 03:49:00;;;;;;;5.82;2.20;;;11.70;99.90;;;;;;4956646;28;20157;-91
2023/07/24 03:51:25;;;;;;;3.75;1.80;;;11.70;99.90;;;;;;4978104;28;20030;-89
2023/07/24 03:53:51;;;;;;;4.93;2.00;;;11.70;99.90;;;;;;4978814;28;20023;-89
2023/07/24 03:56:17;;;;;;;4.60;2.33;;;11.70;99.90;;;;;;4979902;28;20019;-88
2023/07/24 03:58:42;;;;;;;4.35;1.92;;;11.70;99.90;;;;;;4979024;28;20030;-89
2023/07/24 04:01:08;;;;;;;7.07;2.10;;;11.70;99.90;;;;;;4962046;28;20492;-88
2023/07/24 04:03:35;;;;;;;9.45;3.40;;;11.80;99.90;;;;;;4963646;28;20065;-89
2023/07/24 04:06:01;;;;;;;7.07;2.53;;;11.70;99.90;;;;;;4957177;28;20106;-89
2023/07/24 04:08:27;;;;;;;4.55;2.70;;;11.70;99.90;;;;;;4978423;28;20023;-88
2023/07/24 04:10:52;;;;;;;6.97;2.90;;;11.70;99.90;;;;;;4977524;28;20480;-90
2023/07/24 04:13:18;;;;;;;7.63;3.00;;;11.80;99.90;;;;;;4976431;28;20104;-88
2023/07/24 04:15:44;;;;;;;14.75;2.97;;;11.70;99.90;;;;;;4976221;28;20022;-88
2023/07/24 04:18:10;;;;;;;9.00;2.97;;;11.70;99.90;;;;;;4960943;28;20058;-90
2023/07/24 04:20:36;;;;;;;7.80;3.20;;;11.70;99.90;;;;;;4978422;28;20062;-90
2023/07/24 04:23:01;;;;;;;14.85;3.80;;;11.70;99.90;;;;;;4962977;28;20027;-89
2023/07/24 04:25:27;;;;;;;15.38;3.42;;;11.70;99.90;;;;;;4959153;28;20022;-91
2023/07/24 04:27:53;;;;;;;8.90;3.20;;;11.70;99.90;;;;;;4975276;28;20142;-90
2023/07/24 04:30:18;;;;;;;9.57;2.67;;;11.70;99.90;;;;;;4975500;28;20027;-89
2023/07/24 04:32:45;;;;;;;12.85;3.30;;;11.70;99.90;;;;;;4958860;28;20076;-89
2023/07/24 04:35:11;;;;;;;17.33;4.05;;;11.70;99.90;;;;;;4975868;28;20057;-90
2023/07/24 04:37:37;;;;;;;13.52;3.85;;;11.70;99.90;;;;;;4975206;28;20027;-90
2023/07/24 04:40:03;;;;;;;11.75;3.33;;;11.70;99.90;;;;;;4975142;28;20023;-89
2023/07/24 04:42:28;;;;;;;8.02;3.35;;;11.70;99.90;;;;;;4974639;28;20026;-89
2023/07/24 04:44:54;;;;;;;9.23;3.42;;;11.70;99.90;;;;;;4974001;28;20396;-89
2023/07/24 04:47:19;;;;;;;13.05;3.00;;;11.70;99.90;;;;;;4957770;28;20026;-89
2023/07/24 04:49:45;;;;;;;19.20;3.33;;;11.70;99.90;;;;;;4974791;28;20034;-88
2023/07/24 04:52:11;;;;;;;9.05;3.20;;;11.70;99.90;;;;;;4958192;28;20027;-88
2023/07/24 04:54:36;;;;;;;6.07;2.15;;;11.70;99.90;;;;;;4974999;28;20026;-88
2023/07/24 04:57:02;;;;;;;16.63;3.30;;;11.70;99.90;;;;;;4974702;28;20026;-90
2023/07/24 04:59:28;;;;;;;11.60;2.63;;;11.70;99.90;;;;;;4975388;28;20511;-89
2023/07/24 05:01:54;;;;;;;11.15;2.80;;;11.70;99.90;;;;;;4979462;28;20027;-88
2023/07/24 05:04:20;;;;;;;13.85;2.83;;;11.70;99.90;;;;;;4956574;28;20102;-88
2023/07/24 05:06:46;;;;;;;15.07;3.72;;;11.70;99.90;;;;;;4975764;28;20019;-90
2023/07/24 05:09:12;;;;;;;12.43;2.83;;;11.70;99.90;;;;;;4982734;28;20030;-88
2023/07/24 05:11:37;;;;;;;12.13;2.70;;;11.70;99.90;;;;;;4975673;28;20661;-90
2023/07/24 05:14:03;;;;;;;7.53;2.75;;;11.70;99.90;;;;;;4957939;28;20018;-90
2023/07/24 05:16:28;;;;;;;8.98;2.65;;;11.70;99.90;;;;;;4957880;28;20531;-87
2023/07/24 05:18:54;;;;;;;14.10;3.22;;;11.70;99.90;;;;;;4975204;28;20362;-89
2023/07/24 05:21:20;;;;;;;5.88;2.40;;;11.70;99.90;;;;;;4975452;28;20034;-90
2023/07/24 05:23:45;;;;;;;13.27;2.80;;;11.70;99.90;;;;;;4957224;28;20476;-90
2023/07/24 05:26:11;;;;;;;11.10;2.60;;;11.70;99.90;;;;;;4974465;28;20039;-89
2023/07/24 05:28:36;;;;;;;7.50;2.78;;;11.70;99.90;;;;;;4974891;28;20030;-89
2023/07/24 05:31:03;;;;;;;12.07;3.35;;;11.70;99.90;;;;;;4974687;28;20480;-89
2023/07/24 05:33:30;;;;;;;10.20;2.40;;;11.70;99.90;;;;;;4975938;28;20369;-90
2023/07/24 05:35:59;;;;;;;8.07;2.92;;;11.70;99.90;;;;;;4959556;28;20400;-89
2023/07/24 05:38:26;;;;;;;16.00;3.33;;;11.70;99.90;;;;;;4978092;28;20023;-89
2023/07/24 05:40:56;;;;;;;9.98;2.80;;;11.70;99.90;;;;;;4961072;28;20030;-89
2023/07/24 05:43:22;;;;;;;11.00;2.63;;;11.70;99.90;;;;;;4977718;28;20031;-90
2023/07/24 05:45:47;;;;;;;13.73;2.88;;;11.70;99.90;;;;;;4965436;28;20616;-89
2023/07/24 05:48:13;;;;;;;5.70;2.30;;;11.70;99.90;;;;;;4981924;28;20029;-89
2023/07/24 05:50:38;;;;;;;6.63;2.50;;;11.70;99.90;;;;;;4979894;28;20026;-88
2023/07/24 05:53:04;;;;;;;8.98;2.60;;;11.70;99.90;;;;;;4962370;28;20112;-89
2023/07/24 05:55:30;;;;;;;10.48;2.78;;;11.70;99.90;;;;;;4981107;28;20102;-90
2023/07/24 05:57:55;;;;;;;6.55;2.53;;;11.80;99.90;;;;;;4980539;28;20225;-89
2023/07/24 06:00:21;;;;;;;12.70;2.38;;;11.70;99.90;;;;;;4961752;28;20015;-89
2023/07/24 06:02:46;;;;;;;12.25;2.40;;;11.80;99.90;;;;;;4962004;28;20061;-89
2023/07/24 06:05:12;;;;;;;12.90;3.08;;;11.80;99.90;;;;;;4982080;28;20114;-90
2023/07/24 06:07:38;;;;;;;9.95;2.75;;;11.80;99.90;;;;;;4961880;28;20030;-89
2023/07/24 06:10:04;;;;;;;8.18;2.40;;;11.80;99.90;;;;;;4980540;28;20054;-89
2023/07/24 06:12:29;;;;;;;7.75;2.10;;;11.80;99.90;;;;;;4982441;28;20019;-90
2023/07/24 06:14:55;;;;;;;6.60;2.03;;;11.90;99.90;;;;;;4979389;28;20027;-90
2023/07/24 06:17:20;;;;;;;10.77;2.60;;;11.90;99.90;;;;;;4986822;28;20022;-89
2023/07/24 06:19:46;;;;;;;12.90;2.88;;;11.90;99.90;;;;;;4989449;28;20033;-88
2023/07/24 06:22:12;;;;;;;3.88;1.83;;;11.90;99.90;;;;;;4981524;28;20027;-90
2023/07/24 06:24:37;;;;;;;10.27;2.28;;;11.90;99.90;;;;;;4960113;28;20042;-90
2023/07/24 06:27:06;;;;;;;7.63;2.47;;;11.90;99.90;;;;;;4960568;28;20043;-91
2023/07/24 06:29:32;;;;;;;7.25;2.28;;;11.90;99.90;;;;;;4961335;28;20480;-90
2023/07/24 06:31:57;;;;;;;8.88;2.70;;;11.90;99.90;;;;;;4960593;28;20170;-90
2023/07/24 06:34:23;;;;;;;9.35;1.80;;;11.90;99.90;;;;;;4977864;28;20018;-89
2023/07/24 06:36:49;;;;;;;6.47;1.70;;;11.90;99.90;;;;;;4960399;28;20058;-89
2023/07/24 06:39:14;;;;;;;8.80;1.65;;;11.90;99.90;;;;;;4977534;28;20486;-89
2023/07/24 06:41:40;;;;;;;11.07;2.15;;;11.90;99.90;;;;;;4963652;28;20030;-90
2023/07/24 06:44:06;;;;;;;8.50;2.00;;;12.00;99.90;;;;;;4978003;28;20515;-91
2023/07/24 06:46:31;;;;;;;7.57;2.10;;;12.00;99.90;;;;;;4977963;28;20608;-89
2023/07/24 06:48:57;;;;;;;26.60;2.83;;;12.00;99.90;;;;;;4969575;28;20018;-88
2023/07/24 06:51:22;;;;;;;5.72;1.70;;;12.00;99.90;;;;;;4989718;28;20033;-89
2023/07/24 06:53:48;;;;;;;6.60;1.90;;;12.00;99.90;;;;;;4980243;28;20034;-88
2023/07/24 06:56:14;;;;;;;8.45;1.92;;;12.00;99.90;;;;;;4978153;28;20026;-89
2023/07/24 06:58:39;;;;;;;9.38;2.08;;;12.10;99.90;;;;;;4962443;28;20058;-90
2023/07/24 07:01:08;;;;;;;12.77;1.98;;;12.10;99.90;;;;;;4976306;28;20101;-89
2023/07/24 07:03:36;;;;;;;9.77;1.83;;;12.10;99.90;;;;;;4978478;28;20126;-89
2023/07/24 07:06:03;;;;;;;4.65;2.20;;;12.10;99.90;;;;;;4977691;28;20030;-89
2023/07/24 07:08:32;;;;;;;12.38;2.17;;;12.20;99.90;;;;;;4960938;28;20113;-89
2023/07/24 07:10:59;;;;;;;7.47;1.95;;;12.20;99.90;;;;;;4967977;28;20042;-90
2023/07/24 07:13:26;;;;;;;5.68;2.22;;;12.20;99.90;;;;;;4976282;28;20029;-89
2023/07/24 07:15:51;;;;;;;7.55;1.70;;;12.30;99.90;;;;;;4976543;28;20388;-89
2023/07/24 07:18:17;;;;;;;10.88;1.80;;;12.30;99.90;;;;;;4976467;28;20027;-90
2023/07/24 07:20:50;;;;;;;8.05;3.22;;;12.30;99.90;;;;;;4959466;28;20026;-90
2023/07/24 07:23:16;;;;;;;10.98;2.10;;;12.30;99.90;;;;;;4959003;28;20046;-90
2023/07/24 07:25:45;;;;;;;8.07;1.98;;;12.40;99.90;;;;;;4975757;28;20448;-90
2023/07/24 07:28:14;;;;;;;6.78;2.30;;;12.40;99.90;;;;;;4957254;28;20481;-90
2023/07/24 07:30:43;;;;;;;5.15;2.05;;;12.40;99.90;;;;;;4973524;28;20031;-91
2023/07/24 07:33:09;;;;;;;9.93;1.70;;;12.40;99.90;;;;;;4971196;28;20540;-90
2023/07/24 07:35:36;;;;;;;10.70;2.13;;;12.30;99.90;;;;;;4980596;28;20058;-89
2023/07/24 07:38:03;;;;;;;9.52;1.90;;;12.40;99.90;;;;;;4974173;28;20026;-89
2023/07/24 07:40:29;;;;;;;4.55;1.88;;;12.30;99.90;;;;;;4975912;28;20046;-90
2023/07/24 07:42:56;;;;;;;8.30;1.75;;;12.40;99.90;;;;;;4976435;28;20036;-89
2023/07/24 07:45:23;;;;;;;10.52;1.88;;;12.50;99.90;;;;;;4974086;28;20038;-92
2023/07/24 07:47:49;;;;;;;5.78;1.80;;;12.50;99.90;;;;;;4960198;28;20119;-90
2023/07/24 07:50:15;;;;;;;5.75;1.85;;;12.50;99.90;;;;;;4979358;28;20054;-90
2023/07/24 07:52:40;;;;;;;9.35;2.40;;;12.50;99.90;;;;;;4961590;28;20022;-88
2023/07/24 07:55:06;;;;;;;6.75;1.65;;;12.50;99.90;;;;;;4961428;28;20058;-90
2023/07/24 07:57:35;;;;;;;13.88;2.40;;;12.60;99.90;;;;;;4958919;28;20019;-92
2023/07/24 08:00:02;;;;;;;3.55;1.50;;;12.60;99.90;;;;;;4956780;28;20480;-90
2023/07/24 08:02:28;;;;;;;9.38;1.75;;;12.60;99.90;;;;;;4958667;28;20081;-91
2023/07/24 08:04:53;;;;;;;9.48;2.40;;;12.70;99.90;;;;;;4952735;28;20042;-91
2023/07/24 08:07:19;;;;;;;8.57;1.90;;;12.70;99.90;;;;;;4960773;28;20030;-92
2023/07/24 08:09:46;;;;;;;6.25;1.95;;;12.70;99.90;;;;;;4975898;28;20050;-91
2023/07/24 08:12:12;;;;;;;10.75;1.88;;;12.70;99.90;;;;;;4976277;28;20109;-92
2023/07/24 08:14:37;;;;;;;10.90;2.38;;;12.70;99.90;;;;;;4974761;28;20098;-92
2023/07/24 08:17:03;;;;;;;6.97;2.28;;;12.70;99.90;;;;;;4958078;28;20037;-93
2023/07/24 08:19:29;;;;;;;7.03;2.10;;;12.80;99.90;;;;;;4972888;28;20030;-92
2023/07/24 08:21:56;;;;;;;7.03;2.35;;;12.90;99.90;;;;;;4977042;28;20513;-92
2023/07/24 08:24:21;;;;;;;11.18;2.10;;;13.00;99.90;;;;;;4973198;28;20039;-93
2023/07/24 08:26:47;;;;;;;9.07;2.08;;;13.10;99.90;;;;;;4958264;28;20133;-92
2023/07/24 08:29:13;;;;;;;7.47;2.20;;;13.30;99.90;;;;;;4965115;28;20154;-92
2023/07/24 08:31:38;;;;;;;9.75;2.28;;;13.40;99.90;;;;;;4988171;28;20018;-91
2023/07/24 08:34:04;;;;;;;6.40;2.50;;;13.40;99.90;;;;;;4978348;28;20115;-93
2023/07/24 08:36:30;;;;;;;8.68;2.22;;;13.50;99.90;;;;;;4958821;28;20122;-93
2023/07/24 08:38:55;;;;;;;10.35;2.28;;;13.50;99.90;;;;;;4975497;28;20035;-93
2023/07/24 08:41:21;;;;;;;10.77;2.08;;;13.60;99.90;;;;;;4982108;28;20035;-90
2023/07/24 08:43:47;;;;;;;5.75;2.00;;;13.50;99.90;;;;;;4975483;28;20042;-91
2023/07/24 08:46:13;;;;;;;5.95;2.10;;;13.50;99.90;;;;;;4972571;28;20018;-91
2023/07/24 08:48:40;;;;;;;7.80;2.83;;;13.50;99.90;;;;;;4959230;28;20449;-93
2023/07/24 08:51:11;;;;;;;7.65;1.95;;;13.60;99.90;;;;;;4975135;28;20051;-93
2023/07/24 08:53:40;;;;;;;8.27;1.83;;;13.60;99.90;;;;;;4958078;28;20043;-93
2023/07/24 08:56:12;;;;;;;7.85;1.92;;;13.60;99.90;;;;;;4976077;28;20558;-93
2023/07/24 08:58:39;;;;;;;9.38;2.22;;;13.60;99.90;;;;;;4960246;28;20033;-90
2023/07/24 09:01:05;;;;;;;11.43;2.40;;;13.60;99.90;;;;;;4958852;28;20114;-93
2023/07/24 09:03:32;;;;;;;8.00;2.55;;;13.60;99.90;;;;;;4958063;28;20041;-91
2023/07/24 09:06:01;;;;;;;10.38;2.20;;;13.60;99.90;;;;;;4950108;28;20030;-91
2023/07/24 09:08:31;;;;;;;7.07;2.05;;;13.60;99.90;;;;;;4974975;28;20026;-91
2023/07/24 09:10:57;;;;;;;6.15;1.80;;;13.70;99.90;;;;;;4957758;28;20050;-91
2023/07/24 09:13:23;;;;;;;10.43;1.95;;;13.70;99.90;;;;;;4957993;28;20126;-90
2023/07/24 09:15:48;;;;;;;12.68;2.50;;;13.70;99.90;;;;;;4957466;28;20114;-92
2023/07/24 09:18:15;;;;;;;5.93;2.22;;;13.80;99.90;;;;;;4960017;28;20380;-92
2023/07/24 09:20:43;;;;;;;9.38;2.10;;;13.80;99.90;;;;;;4959784;28;20026;-94
2023/07/24 09:23:10;;;;;;;5.68;2.13;;;13.90;99.90;;;;;;4957852;28;20018;-91
2023/07/24 09:25:38;;;;;;;10.73;2.20;;;14.00;99.90;;;;;;4957564;28;21490;-92
2023/07/24 09:28:11;;;;;;;9.45;2.90;;;14.10;99.90;;;;;;4955183;28;20042;-93
2023/07/24 09:30:38;;;;;;;4.90;1.70;;;14.10;99.90;;;;;;4958747;28;20054;-91
2023/07/24 09:33:04;;;;;;;5.60;1.80;;;14.30;99.90;;;;;;4982302;28;20495;-90
2023/07/24 09:35:30;;;;;;;8.55;2.85;;;14.40;99.90;;;;;;4968071;28;20055;-93
2023/07/24 09:38:07;;;;;;;7.05;1.70;;;14.40;99.90;;;;;;4965661;28;20035;-94
2023/07/24 09:40:44;;;;;;;7.97;2.33;;;14.60;99.90;;;;;;4961506;28;20022;-94
2023/07/24 09:43:19;;;;;;;6.35;1.85;;;14.70;99.90;;;;;;4979484;28;20026;-94
2023/07/24 09:45:46;;;;;;;6.75;1.60;;;14.80;99.90;;;;;;4967766;28;20027;-91
2023/07/24 09:48:14;;;;;;;6.97;1.83;;;14.80;99.90;;;;;;4968897;28;20030;-92
2023/07/24 09:50:42;;;;;;;6.03;1.85;;;14.90;99.90;;;;;;4966083;28;20030;-93
2023/07/24 09:53:13;;;;;;;4.28;1.67;;;15.00;99.90;;;;;;4970009;28;20042;-90
2023/07/24 09:55:59;;;;;;;11.02;2.00;;;15.10;99.90;;;;;;4972878;28;20027;-91
2023/07/24 09:58:26;;;;;;;3.40;1.48;;;15.30;99.90;;;;;;4971952;28;20015;-92
2023/07/24 10:00:56;;;;;;;4.45;1.83;;;15.40;99.90;;;;;;4970653;28;20102;-93
2023/07/24 10:03:22;;;;;;;8.93;2.05;;;15.60;99.90;;;;;;4970133;28;20484;-91
2023/07/24 10:05:50;;;;;;;5.00;1.40;;;15.70;99.90;;;;;;4987119;28;20030;-93
2023/07/24 10:08:17;;;;;;;9.43;1.48;;;15.90;99.90;;;;;;4988291;28;20034;-93
2023/07/24 10:10:43;;;;;;;5.95;1.60;;;16.20;99.90;;;;;;4989824;28;20057;-88
2023/07/24 10:13:10;;;;;;;6.60;1.60;;;16.50;99.90;;;;;;4968130;28;20019;-91
2023/07/24 10:15:38;;;;;;;6.05;1.50;;;16.80;99.90;;;;;;4975661;28;20023;-91
2023/07/24 10:18:06;;;;;;;5.25;1.55;;;16.90;99.90;;;;;;4984533;28;20038;-91
2023/07/24 10:20:36;;;;;;;4.88;1.50;;;17.10;99.90;;;;;;4982084;28;20035;-92
2023/07/24 10:23:06;;;;;;;3.78;1.30;;;17.30;99.90;;;;;;4972915;28;20026;-93
2023/07/24 10:25:33;;;;;;;5.10;1.60;;;17.50;99.90;;;;;;4979949;28;20053;-93
2023/07/24 10:28:07;;;;;;;6.28;1.40;;;17.70;99.90;;;;;;4978425;28;20057;-93
2023/07/24 10:30:36;;;;;;;7.95;1.75;;;17.90;99.90;;;;;;4978573;28;20031;-94
2023/07/24 10:33:18;;;;;;;3.37;1.33;;;17.90;99.90;;;;;;4972591;28;20057;-94
2023/07/24 10:35:50;;;;;;;5.97;1.30;;;18.10;99.90;;;;;;4981433;28;20050;-94
2023/07/24 10:38:17;;;;;;;3.13;1.30;;;18.20;99.90;;;;;;4975071;28;20030;-93
2023/07/24 10:40:45;;;;;;;5.05;1.40;;;18.10;99.90;;;;;;4982659;28;20023;-92
2023/07/24 10:43:17;;;;;;;7.63;1.73;;;18.10;99.90;;;;;;4984814;28;20027;-96
2023/07/24 10:45:53;;;;;;;9.85;1.90;;;18.00;99.90;;;;;;4998275;28;20067;-94
2023/07/24 10:48:26;;;;;;;4.60;1.70;;;17.90;99.90;;;;;;4965006;28;20058;-95
2023/07/24 10:50:52;;;;;;;6.20;1.35;;;17.90;99.90;;;;;;4969538;28;20029;-95
2023/07/24 10:53:20;;;;;;;11.20;1.67;;;17.90;99.90;;;;;;4993021;28;20027;-91
2023/07/24 10:55:47;;;;;;;6.50;1.60;;;17.90;99.90;;;;;;4971393;28;20031;-95
2023/07/24 10:58:15;;;;;;;7.72;1.73;;;18.00;99.90;;;;;;4957123;28;20027;-93
2023/07/24 11:00:42;;;;;;;6.97;1.42;;;18.10;99.90;;;;;;4975843;28;20019;-90
2023/07/24 11:03:10;;;;;;;6.70;1.52;;;18.10;99.90;;;;;;4996943;28;20035;-88
2023/07/24 11:05:40;;;;;;;3.08;1.20;;;18.00;99.90;;;;;;4982640;28;20242;-92
2023/07/24 11:08:20;;;;;;;7.28;1.35;;;18.10;99.90;;;;;;4966687;28;20275;-94
2023/07/24 11:10:53;;;;;;;6.20;1.35;;;18.00;99.90;;;;;;5000956;28;20026;-87
2023/07/24 11:13:22;;;;;;;3.95;1.40;;;18.00;99.90;;;;;;4984305;28;20110;-88
2023/07/24 11:15:49;;;;;;;5.18;1.77;;;18.10;99.90;;;;;;4984261;28;20014;-93
2023/07/24 11:18:20;;;;;;;5.43;1.50;;;18.20;99.90;;;;;;4983702;28;20038;-90
2023/07/24 11:20:51;;;;;;;4.75;1.73;;;18.40;99.90;;;;;;5000203;28;20083;-92
2023/07/24 11:23:17;;;;;;;4.88;1.35;;;18.40;99.90;;;;;;4980227;28;20066;-88
2023/07/24 11:25:43;;;;;;;4.25;1.42;;;18.20;99.90;;;;;;4977969;28;20110;-91
2023/07/24 11:28:11;;;;;;;8.02;1.30;;;18.10;99.90;;;;;;4977569;28;20042;-90
2023/07/24 11:30:37;;;;;;;4.18;1.60;;;17.90;99.90;;;;;;4996810;28;20027;-92
2023/07/24 11:33:04;;;;;;;6.78;1.60;;;17.80;99.90;;;;;;4981420;28;20030;-92
2023/07/24 11:35:30;;;;;;;4.43;1.38;;;17.70;99.90;;;;;;4980535;28;20031;-90
2023/07/24 11:37:56;;;;;;;7.93;2.35;;;17.60;99.90;;;;;;4975791;28;20039;-92
2023/07/24 11:40:34;;;;;;;8.32;1.63;;;17.60;99.90;;;;;;4978919;28;20013;-95
2023/07/24 11:42:59;;;;;;;3.47;1.30;;;17.60;99.90;;;;;;4986739;28;20114;-95
2023/07/24 11:45:25;;;;;;;4.70;1.25;;;17.60;99.90;;;;;;4983196;28;20081;-93
2023/07/24 11:47:53;;;;;;;5.22;1.27;;;17.60;99.90;;;;;;4961774;28;20019;-94
2023/07/24 11:50:20;;;;;;;5.40;1.20;;;17.70;99.90;;;;;;4970028;28;20082;-88
2023/07/24 11:52:50;;;;;;;4.75;1.48;;;17.80;99.90;;;;;;4999501;28;20151;-89
2023/07/24 11:55:19;;;;;;;4.97;1.30;;;17.90;99.90;;;;;;4981876;28;20038;-94
2023/07/24 11:57:59;;;;;;;6.07;1.65;;;18.10;99.90;;;;;;4970714;28;20086;-95
2023/07/24 12:00:26;;;;;;;4.40;1.00;;;18.20;99.90;;;;;;4961582;28;20118;-93
2023/07/24 12:02:52;;;;;;;6.55;1.30;;;18.30;99.90;;;;;;4977347;28;20038;-93
2023/07/24 12:05:18;;;;;;;9.80;1.35;;;18.30;99.90;;;;;;4959277;28;20401;-95
2023/07/24 12:07:47;;;;;;;8.90;1.60;;;18.20;99.90;;;;;;4963247;28;20026;-92
2023/07/24 12:10:25;;;;;;;8.57;1.40;;;18.20;99.60;;;;;;4991023;28;20026;-94
2023/07/24 12:12:50;;;;;;;2.90;1.15;;;18.20;99.20;;;;;;4993364;28;20090;-91
2023/07/24 12:15:16;;;;;;;4.40;1.05;;;18.40;99.10;;;;;;4992847;28;20031;-95
2023/07/24 12:17:42;;;;;;;3.25;1.15;;;18.40;98.80;;;;;;4965318;28;20073;-95
2023/07/24 12:20:09;;;;;;;5.95;1.40;;;18.50;98.00;;;;;;4964903;28;20035;-95
2023/07/24 12:22:36;;;;;;;3.20;1.20;;;18.50;97.50;;;;;;4963886;28;20023;-94
2023/07/24 12:25:03;;;;;;;4.30;1.20;;;18.60;97.40;;;;;;4964402;28;20086;-96
2023/07/24 12:27:30;;;;;;;4.75;1.05;;;18.50;96.60;;;;;;4979600;28;20046;-92
2023/07/24 12:29:55;;;;;;;5.68;1.13;;;18.60;96.60;;;;;;4963429;28;20030;-95
2023/07/24 12:32:22;;;;;;;3.63;1.30;;;18.60;96.90;;;;;;4958700;28;20503;-95
2023/07/24 12:34:49;;;;;;;4.50;1.10;;;18.60;96.20;;;;;;4958825;28;20077;-95
2023/07/24 12:37:15;;;;;;;4.10;1.13;;;18.60;95.60;;;;;;4959429;28;20026;-95
2023/07/24 12:39:41;;;;;;;7.22;1.77;;;18.70;95.30;;;;;;4962189;28;20035;-93
2023/07/24 12:42:07;;;;;;;7.18;1.77;;;19.00;95.50;;;;;;4978583;28;20031;-95
2023/07/24 12:44:33;;;;;;;5.82;1.10;;;19.40;95.50;;;;;;4960111;28;20034;-92